スィクティフカル の空港の天気 - METARとTAF

Syktyvkar ( UUYY / SCW ) - ロシア スィクティフカル
飛行場実況気象(Metar)
観測時間10/22 15:30 MSK (10/22 12:30 UTC)
風向・風速北北東 4m/s
視程10km以上
天気現象弱い雪
全天の8割程度の雲 雲底高度 980m
気温-1℃
湿度64%
気圧1016hPa
METARUUYY 221230Z 02004MPS 9999 -SN BKN032 M01/M07 Q1016 R36/CLRD61 NOSIG RMK QFE753/1004
過去の天気等 Google飛行場航空写真 Wunderground天気予報

過去48時間のMETAR

飛行場予報(TAF)
発表時間: 10/22 14:00 MSK (10/22 11:00 UTC)
予報対象時間: 22日15時 MSK ~ 23日15時 MSK
風向・風速北西 3m/s 瞬間風速 8m/s
視程10km以上
少しの雲 雲底高度 340m
全天の8割程度の雲 雲底高度 490m
22日15時 MSK ~ 22日21時 MSK に一時的に
風向・風速西 3m/s
視程6000m
天気現象弱いしゅう雪
全天の8割程度の積乱雲 雲底高度 490m
22日21時 MSK から
風向・風速南 3m/s
視程6000m
少しの雲 雲底高度 210m
全天の8割程度の雲 雲底高度 490m
22日21時 MSK ~ 23日9時 MSK に一時的に
視程300m
天気現象氷霧
全天を覆う雲 鉛直視程 60m
23日9時 MSK から
風向・風速南南東 4m/s 瞬間風速 11m/s
視程6000m
天気現象弱いしゅう雪
少しの雲 雲底高度 210m
全天の8割程度の積乱雲 雲底高度 490m
TAF UUYY 221100Z 2212/2312 32003G08MPS 9999 FEW011 BKN016
TEMPO 2212/2218 28003MPS 6000 -SHSN BKN016CB
FM221800 18003MPS 6000 FEW007 BKN016
TEMPO 2218/2306 0300 FZFG VV002
FM230600 16004G11MPS 6000 -SHSN FEW007 BKN016CB